Time;durP1;ratioP1;P1;durP2;ratioP2;P2;SDS_P1;SDS_P2;PMS_P1;PMS_P2;Temp;Humidity;BMP_temperature;BMP_pressure;BME280_temperature;BME280_humidity;BME280_pressure;Samples;Min_cycle;Max_cycle;Signal;HPM_P1;HPM_P2
2022/07/27 00:03:08;;;;;;;0.40;0.40;;;15.50;99.90;16.60;101827.00;;;;5110839;28;20274;-68
2022/07/27 00:06:02;;;;;;;0.40;0.40;;;15.40;99.90;16.20;101857.00;;;;5115016;28;20182;-68
2022/07/27 00:09:10;;;;;;;0.40;0.40;;;15.30;99.90;16.80;101870.00;;;;5114814;28;20554;-68
2022/07/27 00:12:16;;;;;;;0.57;0.57;;;15.50;99.90;17.30;101870.00;;;;5114994;28;20199;-68
2022/07/27 00:15:07;;;;;;;0.50;0.50;;;15.80;99.90;17.10;101865.00;;;;5114923;28;20200;-68
2022/07/27 00:17:59;;;;;;;0.40;0.40;;;15.80;99.90;17.50;101862.00;;;;5114828;28;20181;-68
2022/07/27 00:21:17;;;;;;;0.50;0.50;;;16.00;99.90;17.40;101859.00;;;;5083823;28;20178;-68
2022/07/27 00:24:26;;;;;;;0.50;0.50;;;16.10;99.90;17.60;101861.00;;;;5114520;28;20183;-68
2022/07/27 00:27:33;;;;;;;0.50;0.50;;;16.20;99.90;17.10;101870.00;;;;5098071;28;20224;-68
2022/07/27 00:30:55;;;;;;;0.60;0.60;;;16.30;99.90;17.50;101859.00;;;;5096431;28;20241;-68
2022/07/27 00:34:01;;;;;;;0.40;0.40;;;16.20;99.90;17.80;101876.00;;;;5094382;28;20203;-68
2022/07/27 00:37:02;;;;;;;0.40;0.40;;;16.30;99.90;17.60;101863.00;;;;5079713;28;20226;-68
2022/07/27 00:40:07;;;;;;;0.40;0.40;;;16.30;99.90;17.40;101870.00;;;;5097690;28;20181;-68
2022/07/27 00:43:11;;;;;;;0.40;0.40;;;16.10;99.90;17.80;101878.00;;;;5097275;28;20190;-68
2022/07/27 00:46:12;;;;;;;0.40;0.40;;;16.40;99.90;17.40;101855.00;;;;5097421;28;20185;-68
2022/07/27 00:49:16;;;;;;;0.40;0.40;;;16.40;99.90;17.30;101851.00;;;;5114375;28;20192;-67
2022/07/27 00:52:03;;;;;;;0.47;0.47;;;16.10;99.90;17.20;101844.00;;;;5114227;28;20199;-67
2022/07/27 00:55:19;;;;;;;0.40;0.40;;;15.90;99.90;16.90;101861.00;;;;5102549;28;20191;-68
2022/07/27 00:58:32;;;;;;;0.50;0.50;;;15.70;99.90;16.80;101857.00;;;;5082381;28;20191;-68
2022/07/27 01:01:27;;;;;;;0.57;0.57;;;15.50;99.90;16.40;101807.00;;;;5082312;28;20176;-68
2022/07/27 01:04:22;;;;;;;0.50;0.50;;;15.30;99.90;16.60;101859.00;;;;5076916;28;20215;-68
2022/07/27 01:07:49;;;;;;;0.50;0.50;;;15.20;99.90;16.90;101847.00;;;;5089610;28;20200;-68
2022/07/27 01:10:57;;;;;;;0.50;0.50;;;15.20;99.90;16.70;101844.00;;;;5093234;28;20175;-67
2022/07/27 01:14:05;;;;;;;0.60;0.60;;;15.50;99.90;17.20;101847.00;;;;5092762;28;20202;-68
2022/07/27 01:16:56;;;;;;;0.50;0.50;;;15.60;99.90;17.20;101843.00;;;;5076141;28;20275;-68
2022/07/27 01:20:01;;;;;;;0.50;0.50;;;15.90;99.90;16.90;101848.00;;;;5093753;28;20216;-68
2022/07/27 01:23:04;;;;;;;0.50;0.50;;;15.70;99.90;16.70;101843.00;;;;5093309;28;20696;-67
2022/07/27 01:26:28;;;;;;;0.50;0.50;;;15.50;99.90;16.50;101857.00;;;;5093716;28;20183;-67
2022/07/27 01:29:37;;;;;;;0.60;0.60;;;15.30;99.90;16.40;101812.00;;;;5093452;28;20179;-67
2022/07/27 01:33:01;;;;;;;0.50;0.50;;;15.20;99.90;16.10;101848.00;;;;5076113;28;20309;-67
2022/07/27 01:36:03;;;;;;;0.50;0.50;;;15.10;99.90;16.20;101848.00;;;;5082807;28;20180;-68
2022/07/27 01:39:33;;;;;;;0.57;0.57;;;14.90;99.90;16.80;101838.00;;;;5092778;28;20652;-68
2022/07/27 01:42:46;;;;;;;0.60;0.60;;;15.10;99.90;16.30;101849.00;;;;5090322;28;20186;-67
2022/07/27 01:45:38;;;;;;;0.60;0.60;;;15.20;99.90;16.50;101845.00;;;;5112956;28;20206;-68
2022/07/27 01:48:27;;;;;;;0.60;0.60;;;15.20;99.90;16.30;101847.00;;;;5113148;28;20217;-67
2022/07/27 01:51:28;;;;;;;0.60;0.60;;;15.00;99.90;16.30;101842.00;;;;5095563;28;20194;-68
2022/07/27 01:54:29;;;;;;;0.60;0.60;;;15.00;99.90;16.60;101832.00;;;;5095771;28;20180;-68
2022/07/27 01:57:30;;;;;;;0.60;0.60;;;15.00;99.90;16.80;101826.00;;;;5114439;28;20162;-67
2022/07/27 02:00:17;;;;;;;0.60;0.60;;;15.20;99.90;16.50;101842.00;;;;5114124;27;20219;-68
2022/07/27 02:07:17;;;;;;;0.60;0.60;;;15.10;99.90;16.60;101798.00;;;;5112286;28;20185;-68
2022/07/27 02:10:20;;;;;;;0.60;0.60;;;15.00;99.90;16.50;101819.00;;;;5096144;28;20268;-68
2022/07/27 02:13:38;;;;;;;1.07;1.07;;;15.10;99.90;16.10;101832.00;;;;5113981;28;20198;-68
2022/07/27 02:16:58;;;;;;;0.60;0.60;;;15.00;99.90;16.00;101829.00;;;;5112836;28;20634;-68
2022/07/27 02:20:08;;;;;;;0.60;0.60;;;14.80;99.90;15.90;101823.00;;;;5099454;28;20176;-67
2022/07/27 02:23:02;;;;;;;0.70;0.70;;;14.70;99.90;15.80;101823.00;;;;5112363;28;20191;-68
2022/07/27 02:26:23;;;;;;;0.60;0.60;;;14.60;99.90;16.20;101829.00;;;;5112746;28;20187;-68
2022/07/27 02:29:44;;;;;;;0.70;0.70;;;14.70;99.90;16.20;101818.00;;;;5112417;28;20186;-68
2022/07/27 02:33:08;;;;;;;0.60;0.60;;;14.70;99.90;15.90;101817.00;;;;5112393;28;20213;-68
2022/07/27 02:36:29;;;;;;;0.60;0.60;;;14.60;99.90;15.70;101785.00;;;;5112302;28;20185;-68
2022/07/27 02:39:34;;;;;;;0.70;0.70;;;14.50;99.90;15.80;101826.00;;;;5112712;28;20180;-68
2022/07/27 02:42:25;;;;;;;0.70;0.70;;;14.40;99.90;15.80;101821.00;;;;5112682;28;20208;-68
2022/07/27 02:49:31;;;;;;;0.80;0.80;;;14.40;99.90;15.70;101815.00;;;;5112978;28;20208;-68
2022/07/27 02:52:22;;;;;;;0.63;0.63;;;14.40;99.90;15.90;101817.00;;;;5112435;28;20201;-68
2022/07/27 02:55:43;;;;;;;0.70;0.70;;;14.30;99.90;15.80;101825.00;;;;5112219;28;20181;-68
2022/07/27 02:59:08;;;;;;;0.70;0.70;;;14.40;99.90;15.50;101796.00;;;;5112512;28;20180;-68
2022/07/27 03:02:32;;;;;;;0.70;0.70;;;14.30;99.90;15.50;101837.00;;;;5113362;28;20187;-68
2022/07/27 03:05:40;;;;;;;0.70;0.70;;;14.20;99.90;15.60;101827.00;;;;5082335;28;20194;-68
2022/07/27 03:08:43;;;;;;;0.70;0.70;;;14.20;99.90;15.80;101827.00;;;;5113850;28;20174;-68
2022/07/27 03:12:08;;;;;;;0.70;0.70;;;14.40;99.90;15.90;101821.00;;;;5095201;28;20193;-68
2022/07/27 03:15:11;;;;;;;0.70;0.70;;;14.40;99.90;16.10;101824.00;;;;5112280;28;20172;-67
2022/07/27 03:18:32;;;;;;;0.60;0.60;;;14.50;99.90;15.60;101826.00;;;;5111819;28;20176;-67
2022/07/27 03:21:51;;;;;;;0.70;0.70;;;14.60;99.90;15.80;101821.00;;;;5116063;28;20178;-67
2022/07/27 03:24:52;;;;;;;0.70;0.70;;;14.40;99.90;15.90;101821.00;;;;5099106;28;20188;-67
2022/07/27 03:28:33;;;;;;;0.70;0.70;;;14.40;99.90;15.60;101823.00;;;;5115929;28;20238;-67
2022/07/27 03:31:40;;;;;;;0.70;0.70;;;14.30;99.90;15.40;101826.00;;;;5115655;28;20182;-67
2022/07/27 03:34:42;;;;;;;0.80;0.80;;;14.20;99.90;15.50;101787.00;;;;5115632;28;20181;-68
2022/07/27 03:38:06;;;;;;;1.07;1.07;;;14.20;99.90;15.00;101823.00;;;;5115786;28;20194;-67
2022/07/27 03:41:12;;;;;;;0.80;0.80;;;14.00;99.90;15.20;101812.00;;;;5098345;28;20640;-67
2022/07/27 03:44:23;;;;;;;0.70;0.70;;;13.90;99.90;15.30;101832.00;;;;5115010;28;20653;-68
2022/07/27 03:47:31;;;;;;;0.90;0.90;;;14.00;99.90;15.50;101838.00;;;;5115871;28;20175;-67
2022/07/27 03:50:35;;;;;;;0.80;0.80;;;14.00;99.90;15.60;101833.00;;;;5098654;28;20636;-68
2022/07/27 03:53:57;;;;;;;0.63;0.63;;;14.20;99.90;15.30;101829.00;;;;5098146;28;20215;-68
2022/07/27 03:57:18;;;;;;;0.70;0.70;;;14.00;99.90;15.00;101828.00;;;;5115609;28;20260;-68
2022/07/27 04:00:31;;;;;;;0.70;0.70;;;13.90;99.90;14.70;101808.00;;;;5115590;28;20647;-68
2022/07/27 04:03:37;;;;;;;0.70;0.70;;;13.80;99.90;15.00;101802.00;;;;5094519;28;20184;-68
2022/07/27 04:06:56;;;;;;;0.70;0.70;;;13.70;99.90;15.20;101828.00;;;;5107692;28;20242;-68
2022/07/27 04:10:04;;;;;;;0.80;0.80;;;13.70;99.90;15.30;101833.00;;;;5111828;28;20199;-68
2022/07/27 04:13:32;;;;;;;0.70;0.70;;;13.80;99.90;15.10;101837.00;;;;5111631;28;20241;-68
2022/07/27 04:16:55;;;;;;;0.80;0.80;;;13.80;99.90;15.10;101840.00;;;;5110307;28;20282;-68
2022/07/27 04:19:51;;;;;;;0.80;0.80;;;13.80;99.90;14.80;101839.00;;;;5094814;28;20171;-66
2022/07/27 04:22:55;;;;;;;0.70;0.70;;;13.70;99.90;14.50;101842.00;;;;5111234;28;20174;-65
2022/07/27 04:33:28;;;;;;;0.80;0.80;;;13.60;99.90;15.00;101850.00;;;;5107982;28;20225;-67
2022/07/27 04:36:48;;;;;;;0.70;0.70;;;13.80;99.90;15.60;101846.00;;;;5111086;28;20618;-68
2022/07/27 04:40:09;;;;;;;0.73;0.73;;;14.00;99.90;15.70;101843.00;;;;5111379;28;20173;-66
2022/07/27 04:43:16;;;;;;;0.70;0.70;;;14.20;99.90;15.80;101848.00;;;;5093526;28;20198;-65
2022/07/27 04:46:23;;;;;;;0.73;0.73;;;14.40;99.90;16.10;101844.00;;;;5110616;28;20212;-66
2022/07/27 04:49:42;;;;;;;0.80;0.80;;;14.50;99.90;16.10;101841.00;;;;5093817;28;20176;-66
2022/07/27 04:53:03;;;;;;;0.60;0.60;;;14.60;99.90;16.70;101845.00;;;;5111222;28;20201;-66
2022/07/27 04:56:16;;;;;;;0.50;0.50;;;15.00;99.90;17.80;101831.00;;;;5094742;28;20170;-68
2022/07/27 04:59:24;;;;;;;0.60;0.60;;;15.90;99.90;18.00;101847.00;;;;5093856;28;20172;-68
2022/07/27 05:02:27;;;;;;;0.70;0.70;;;16.40;99.90;17.80;101853.00;;;;5110775;28;20527;-68
2022/07/27 05:05:45;;;;;;;0.80;0.80;;;16.30;99.90;17.60;101848.00;;;;5110324;28;20642;-68
2022/07/27 05:09:14;;;;;;;0.63;0.63;;;16.20;99.90;17.60;101848.00;;;;5110801;28;20177;-68
2022/07/27 05:12:36;;;;;;;0.70;0.70;;;16.10;99.90;17.40;101848.00;;;;5103570;28;20282;-68
2022/07/27 05:15:40;;;;;;;0.70;0.70;;;15.90;99.90;17.00;101846.00;;;;5090578;28;20210;-68
2022/07/27 05:19:04;;;;;;;0.60;0.60;;;15.70;99.90;16.90;101849.00;;;;5110722;28;20580;-68
2022/07/27 05:22:19;;;;;;;0.40;0.40;;;15.70;99.90;18.70;101845.00;;;;5110399;28;20185;-67
2022/07/27 05:25:41;;;;;;;0.40;0.40;;;16.40;99.90;20.50;101881.00;;;;5068686;28;20190;-68
2022/07/27 05:29:10;;;;;;;0.30;0.30;;;18.00;99.90;22.70;101921.00;;;;5094339;28;20174;-68
2022/07/27 05:32:16;;;;;;;0.20;0.20;;;19.90;99.90;23.70;101977.00;;;;5093954;28;20196;-67
2022/07/27 05:35:35;;;;;;;0.20;0.20;;;21.50;99.90;23.70;101991.00;;;;5110090;28;20280;-67
2022/07/27 05:39:00;;;;;;;0.20;0.20;;;21.60;99.90;23.60;102011.00;;;;5109947;28;20177;-67
2022/07/27 05:42:06;;;;;;;0.30;0.30;;;21.80;99.90;22.10;101984.00;;;;5107668;28;20184;-67
2022/07/27 05:45:10;;;;;;;0.30;0.30;;;21.00;99.90;21.30;102005.00;;;;5093774;28;20642;-67
2022/07/27 05:48:32;;;;;;;0.30;0.30;;;19.90;99.90;20.20;101971.00;;;;5109736;28;20187;-67
2022/07/27 05:51:37;;;;;;;0.37;0.37;;;19.20;99.90;19.50;101940.00;;;;5110004;28;20189;-66
2022/07/27 05:54:37;;;;;;;0.70;0.70;;;18.60;99.90;18.90;101915.00;;;;5092796;28;20270;-67
2022/07/27 05:57:42;;;;;;;0.40;0.40;;;17.90;99.90;18.80;101916.00;;;;5109911;28;20179;-67
2022/07/27 06:01:06;;;;;;;0.40;0.40;;;17.60;99.90;18.10;101915.00;;;;5092394;28;20641;-67
2022/07/27 06:04:24;;;;;;;0.40;0.40;;;17.20;99.90;17.90;101907.00;;;;5109023;28;20241;-66
2022/07/27 06:11:04;;;;;;;0.50;0.50;;;16.80;99.90;18.00;101892.00;;;;5093640;28;20173;-67
2022/07/27 06:14:25;;;;;;;0.50;0.50;;;16.70;99.90;17.90;101886.00;;;;5109142;28;20181;-67
2022/07/27 06:17:26;;;;;;;0.50;0.50;;;16.70;99.90;18.20;101899.00;;;;5108976;28;20197;-67
2022/07/27 06:20:32;;;;;;;0.50;0.50;;;16.80;99.90;17.80;101898.00;;;;5094106;28;20176;-66
2022/07/27 06:23:55;;;;;;;0.50;0.50;;;16.60;99.90;18.40;101902.00;;;;5075739;28;20193;-67
2022/07/27 06:27:00;;;;;;;0.50;0.50;;;16.80;99.90;18.70;101912.00;;;;5092466;28;20209;-67
2022/07/27 06:30:13;;;;;;;0.50;0.50;;;17.10;99.90;19.00;101908.00;;;;5109261;28;20185;-67
2022/07/27 06:33:32;;;;;;;0.50;0.50;;;17.30;99.90;18.80;101909.00;;;;5092163;28;20209;-67
2022/07/27 06:36:58;;;;;;;0.40;0.40;;;17.60;99.90;18.70;101913.00;;;;5109451;28;20198;-67
2022/07/27 06:40:03;;;;;;;0.50;0.50;;;17.50;99.90;19.70;101915.00;;;;5093553;28;20165;-67
2022/07/27 06:43:16;;;;;;;0.40;0.40;;;17.80;99.90;20.10;101929.00;;;;5108955;28;20303;-67
2022/07/27 06:46:37;;;;;;;0.40;0.40;;;18.20;99.90;20.30;101938.00;;;;5106534;28;20176;-67
2022/07/27 06:49:53;;;;;;;0.40;0.40;;;18.70;99.90;21.00;101950.00;;;;5093261;28;20184;-67
2022/07/27 06:53:14;;;;;;;0.30;0.30;;;19.20;99.90;21.00;101957.00;;;;5109057;28;20206;-67
2022/07/27 06:56:18;;;;;;;0.20;0.20;;;19.30;99.90;23.90;101984.00;;;;5096140;28;20574;-67
2022/07/27 06:59:19;;;;;;;0.20;0.20;;;21.00;99.90;27.20;102008.00;;;;5112646;28;20218;-67
2022/07/27 07:02:14;;;;;;;0.13;0.13;;;23.90;99.90;30.00;102039.00;;;;5112948;28;20241;-67
2022/07/27 07:05:15;;;;;;;0.10;0.10;;;26.80;99.90;32.20;102041.00;;;;5089826;28;20191;-67
2022/07/27 07:08:34;;;;;;;0.10;0.10;;;29.30;99.90;33.40;102011.00;;;;5113056;28;20185;-68
2022/07/27 07:11:36;;;;;;;0.10;0.10;;;30.90;99.90;32.40;102040.00;;;;5113019;28;20188;-68
2022/07/27 07:14:41;;;;;;;0.40;0.40;;;30.70;99.90;33.60;102007.00;;;;5095586;28;20639;-68
2022/07/27 07:17:51;;;;;;;0.10;0.10;;;31.30;98.40;32.50;102032.00;;;;5096810;28;20212;-68
2022/07/27 07:21:04;;;;;;;0.10;0.10;;;32.00;95.90;33.40;102035.00;;;;5112900;28;20640;-67
2022/07/27 07:24:29;;;;;;;0.10;0.10;;;31.50;96.00;33.30;102055.00;;;;5112745;28;20181;-68
2022/07/27 07:27:30;;;;;;;0.32;0.32;;;31.50;95.00;32.30;102036.00;;;;5112529;28;20180;-67
2022/07/27 07:30:31;;;;;;;0.25;0.25;;;31.10;93.40;28.60;102062.00;;;;5096739;28;20263;-67
2022/07/27 07:33:35;;;;;;;0.10;0.10;;;29.90;93.60;25.30;102078.00;;;;5112136;28;20208;-67
2022/07/27 07:36:21;;;;;;;0.10;0.10;;;26.70;95.80;25.10;102061.00;;;;5112334;28;20184;-66
2022/07/27 07:39:12;;;;;;;0.10;0.10;;;24.90;99.90;27.90;102079.00;;;;5095696;28;20165;-67
2022/07/27 07:41:56;;;;;;;0.10;0.10;;;25.50;99.90;29.70;102079.00;;;;5112506;28;20176;-67
2022/07/27 07:44:42;;;;;;;0.10;0.10;;;27.20;98.80;29.30;102086.00;;;;5102523;28;20203;-67
2022/07/27 07:47:30;;;;;;;0.10;0.10;;;27.80;96.80;27.50;102105.00;;;;5094331;28;20196;-67
2022/07/27 07:50:34;;;;;;;0.10;0.10;;;26.90;97.50;25.90;102117.00;;;;5078700;28;20173;-67
2022/07/27 07:53:22;;;;;;;0.10;0.10;;;25.80;99.00;26.90;102116.00;;;;5085369;28;20627;-67
2022/07/27 07:56:05;;;;;;;0.20;0.20;;;25.40;99.90;24.60;102126.00;;;;5094980;28;20168;-67
2022/07/27 08:03:01;;;;;;;0.30;0.30;;;23.50;99.90;22.60;102081.00;;;;4968959;28;20206;-66
2022/07/27 08:06:40;;;;;;;0.20;0.20;;;22.60;99.90;23.40;102113.00;;;;4935239;29;20260;-67
2022/07/27 08:09:25;;;;;;;0.10;0.10;;;22.80;99.90;25.40;102106.00;;;;4954576;29;20569;-63
2022/07/27 08:13:17;;;;;;;0.22;0.22;;;23.70;99.90;24.80;102099.00;;;;4963857;28;20292;-65
2022/07/27 08:19:54;;;;;;;0.10;0.10;;;24.20;99.90;24.60;102118.00;;;;4880124;29;20188;-68
2022/07/27 08:23:01;;;;;;;0.20;0.20;;;23.70;99.90;24.00;102116.00;;;;4879813;29;20206;-70
2022/07/27 08:26:30;;;;;;;0.25;0.25;;;23.70;99.90;24.40;102112.00;;;;4879794;29;20287;-71
2022/07/27 08:29:55;;;;;;;0.20;0.20;;;22.70;99.90;22.80;102119.00;;;;4863924;29;20274;-70
2022/07/27 08:36:57;;;;;;;0.10;0.10;;;22.30;99.90;22.70;102102.00;;;;4876699;29;20206;-70
2022/07/27 08:39:57;;;;;;;0.10;0.10;;;22.40;99.90;22.70;102064.00;;;;4897449;29;20658;-71
2022/07/27 08:42:30;;;;;;;0.10;0.10;;;21.60;99.90;23.80;102108.00;;;;4897757;29;20206;-71
2022/07/27 08:46:25;;;;;;;0.43;0.35;;;22.00;99.90;23.00;102100.00;;;;4897602;29;20276;-72
2022/07/27 08:49:48;;;;;;;0.10;0.10;;;22.10;99.90;24.00;102104.00;;;;4882003;29;20199;-71
2022/07/27 08:56:33;;;;;;;0.10;0.10;;;22.80;99.90;25.30;102090.00;;;;4993424;28;20179;-73
2022/07/27 08:59:20;;;;;;;0.10;0.10;;;23.50;99.90;24.60;102104.00;;;;4993340;28;20192;-72
2022/07/27 09:02:12;;;;;;;0.10;0.10;;;23.20;99.90;24.20;102119.00;;;;4977136;28;20280;-72
2022/07/27 09:04:54;;;;;;;0.13;0.13;;;22.80;99.90;24.70;102109.00;;;;4976801;28;20191;-72
2022/07/27 09:08:07;;;;;;;0.30;0.30;;;22.90;99.90;21.90;102104.00;;;;4992658;28;20181;-72
2022/07/27 09:10:54;;;;;;;0.10;0.10;;;21.60;99.90;22.60;102096.00;;;;4974045;28;20199;-73
2022/07/27 09:13:32;;;;;;;0.10;0.10;;;21.30;99.90;23.10;102098.00;;;;5007971;28;20253;-76
2022/07/27 09:16:31;;;;;;;0.10;0.10;;;21.70;99.90;24.30;102113.00;;;;5026637;28;20201;-72
2022/07/27 09:19:51;;;;;;;0.10;0.10;;;22.20;99.90;23.90;102112.00;;;;5035787;28;20588;-72
2022/07/27 09:22:52;;;;;;;0.15;0.15;;;22.50;99.90;24.20;102109.00;;;;5093460;28;20199;-72
2022/07/27 09:26:01;;;;;;;0.70;0.55;;;22.30;99.90;23.00;102104.00;;;;5094502;28;20180;-71
2022/07/27 09:29:12;;;;;;;0.10;0.10;;;22.10;99.90;22.50;102069.00;;;;5093202;28;20185;-71
2022/07/27 09:32:59;;;;;;;0.10;0.10;;;21.50;99.90;23.10;102100.00;;;;5079140;28;20652;-71
2022/07/27 09:36:05;;;;;;;0.10;0.10;;;21.70;99.90;21.60;102057.00;;;;5034986;28;20189;-71
2022/07/27 09:39:28;;;;;;;0.10;0.10;;;21.00;99.90;23.00;102088.00;;;;5035963;28;20201;-71
2022/07/27 09:42:15;;;;;;;0.20;0.20;;;21.00;99.90;23.50;102078.00;;;;5034990;28;20324;-70
2022/07/27 09:45:44;;;;;;;0.10;0.10;;;21.70;99.90;24.70;102081.00;;;;5034811;28;20276;-64
2022/07/27 09:48:53;;;;;;;0.10;0.10;;;23.00;99.90;22.50;102083.00;;;;5035499;28;20169;-65
2022/07/27 09:51:46;;;;;;;0.10;0.10;;;22.40;99.90;21.90;102077.00;;;;5034919;28;20694;-63
2022/07/27 09:54:45;;;;;;;0.10;0.10;;;21.30;99.90;24.60;102089.00;;;;5037631;28;20224;-64
2022/07/27 09:57:24;;;;;;;0.10;0.10;;;22.40;99.90;24.50;102085.00;;;;5070286;28;20189;-64
2022/07/27 10:00:18;;;;;;;0.38;0.20;;;23.40;99.90;23.10;102084.00;;;;5059269;28;20189;-64
2022/07/27 10:03:16;;;;;;;2.72;0.60;;;22.90;99.90;21.80;102054.00;;;;5066310;28;20334;-64
2022/07/27 10:06:02;;;;;;;0.40;0.40;;;21.80;99.90;21.30;102071.00;;;;5060968;28;20172;-64
2022/07/27 10:08:49;;;;;;;0.28;0.28;;;20.90;99.90;21.30;102064.00;;;;5075615;28;20192;-64
2022/07/27 10:11:42;;;;;;;0.40;0.40;;;20.60;99.90;20.80;102063.00;;;;5075552;28;20195;-64
2022/07/27 10:14:45;;;;;;;0.20;0.20;;;20.30;99.90;22.20;102064.00;;;;5092215;28;20241;-64
2022/07/27 10:17:41;;;;;;;0.30;0.30;;;20.50;99.90;21.90;102032.00;;;;5090810;28;20192;-65
2022/07/27 10:20:18;;;;;;;2.65;0.60;;;20.70;99.90;21.30;102060.00;;;;5075380;28;20266;-64
2022/07/27 10:34:13;;;;;;;0.32;0.32;;;21.60;99.90;22.60;102064.00;;;;5111212;27;20621;-64
2022/07/27 10:37:09;;;;;;;0.90;0.90;;;22.10;99.90;23.20;102066.00;;;;5060460;28;20334;-64
2022/07/27 10:43:16;;;;;;;0.10;0.10;;;22.60;99.90;24.70;102081.00;;;;5061549;28;20235;-64
2022/07/27 10:46:06;;;;;;;0.10;0.10;;;23.10;99.90;24.80;102082.00;;;;5056398;28;20589;-64
2022/07/27 10:48:41;;;;;;;0.10;0.10;;;23.60;99.90;25.60;102084.00;;;;5055890;28;20180;-64
2022/07/27 10:51:34;;;;;;;0.10;0.10;;;24.10;99.90;26.00;102095.00;;;;5072989;28;20623;-64
2022/07/27 10:54:29;;;;;;;0.38;0.25;;;24.60;99.90;24.30;102098.00;;;;5041939;28;20511;-64
2022/07/27 10:57:36;;;;;;;0.10;0.10;;;23.60;99.90;25.40;102096.00;;;;5090621;28;20184;-65
2022/07/27 11:00:48;;;;;;;0.10;0.10;;;24.40;99.90;24.30;102108.00;;;;5057513;28;20180;-63
2022/07/27 11:06:50;;;;;;;0.10;0.10;;;23.70;99.90;24.10;102111.00;;;;5070425;28;20208;-64
2022/07/27 11:10:18;;;;;;;0.10;0.10;;;23.30;99.90;25.50;102105.00;;;;5034857;28;20193;-64
2022/07/27 11:13:34;;;;;;;0.17;0.17;;;23.40;99.90;24.50;102115.00;;;;5035603;28;20223;-64
2022/07/27 11:16:03;;;;;;;0.13;0.13;;;23.10;99.90;23.60;102088.00;;;;5051565;28;20186;-64
2022/07/27 11:19:02;;;;;;;0.10;0.10;;;22.70;99.90;22.60;102117.00;;;;5051499;28;20178;-64
2022/07/27 11:21:51;;;;;;;0.10;0.10;;;21.90;99.90;23.90;102091.00;;;;5052235;28;20197;-64
2022/07/27 11:24:39;;;;;;;0.10;0.10;;;21.90;99.90;24.60;102099.00;;;;5052262;28;20178;-64
2022/07/27 11:27:26;;;;;;;0.10;0.10;;;22.70;99.90;25.30;102096.00;;;;5034984;28;20216;-64
2022/07/27 11:30:27;;;;;;;0.52;0.30;;;23.30;99.90;26.60;102073.00;;;;5051957;28;20182;-64
2022/07/27 11:33:04;;;;;;;0.10;0.10;;;24.60;99.90;27.20;102051.00;;;;5051090;28;20578;-66
2022/07/27 11:35:54;;;;;;;0.10;0.10;;;25.60;97.70;27.30;102057.00;;;;5040831;28;20683;-66
2022/07/27 11:39:04;;;;;;;0.10;0.10;;;25.70;97.40;24.40;102055.00;;;;5069461;28;20296;-63
2022/07/27 11:42:22;;;;;;;0.10;0.10;;;24.90;94.30;25.70;102042.00;;;;5051727;28;20213;-63
2022/07/27 11:45:33;;;;;;;1.10;0.43;;;24.70;94.80;28.70;102042.00;;;;5037554;28;20171;-66
2022/07/27 11:48:49;;;;;;;0.13;0.13;;;26.40;94.30;28.40;102019.00;;;;5026997;28;20281;-63
2022/07/27 11:52:02;;;;;;;0.10;0.10;;;27.80;90.70;26.80;102019.00;;;;5041568;28;20285;-66
2022/07/27 11:55:11;;;;;;;0.10;0.10;;;26.50;88.80;24.00;102015.00;;;;5028880;28;20202;-70
2022/07/27 11:58:26;;;;;;;0.20;0.20;;;24.80;90.00;23.20;102024.00;;;;5075165;28;20232;-67
2022/07/27 12:01:41;;;;;;;0.10;0.10;;;22.80;91.80;25.60;102018.00;;;;5058238;28;20185;-68
2022/07/27 12:05:08;;;;;;;0.10;0.10;;;23.30;93.00;25.10;102017.00;;;;5039328;28;20676;-67
2022/07/27 12:08:23;;;;;;;0.28;0.28;;;24.20;92.20;25.50;102017.00;;;;5057642;28;20178;-67
2022/07/27 12:12:04;;;;;;;0.25;0.25;;;24.20;92.60;24.40;102019.00;;;;5057948;28;20611;-67
2022/07/27 12:15:11;;;;;;;0.17;0.17;;;23.50;93.70;23.00;102023.00;;;;5053196;28;20217;-67
2022/07/27 12:18:30;;;;;;;0.13;0.13;;;22.60;94.20;24.70;102018.00;;;;5060012;28;20193;-67
2022/07/27 12:21:39;;;;;;;0.10;0.10;;;23.00;94.80;25.10;102024.00;;;;5057869;28;20571;-68
2022/07/27 12:28:26;;;;;;;0.10;0.10;;;24.30;92.50;26.30;102017.00;;;;5060116;28;20182;-66
2022/07/27 12:31:58;;;;;;;0.10;0.10;;;25.00;91.40;26.20;102007.00;;;;5074866;28;20257;-66
2022/07/27 12:35:23;;;;;;;0.30;0.30;;;25.00;91.00;24.70;102009.00;;;;5075060;28;20196;-66
2022/07/27 12:39:12;;;;;;;0.20;0.20;;;23.90;92.80;23.60;102007.00;;;;5064907;28;20208;-66
2022/07/27 12:42:30;;;;;;;0.10;0.10;;;23.20;93.00;23.10;102007.00;;;;5074914;28;20227;-66
2022/07/27 12:45:42;;;;;;;0.22;0.22;;;22.30;94.20;23.30;102007.00;;;;5052666;28;20193;-66
2022/07/27 12:48:48;;;;;;;0.10;0.10;;;22.00;94.50;24.20;101997.00;;;;5056885;28;20179;-66
2022/07/27 12:52:15;;;;;;;0.20;0.20;;;22.40;95.30;25.20;102001.00;;;;5074727;28;20198;-67
2022/07/27 12:55:36;;;;;;;0.10;0.10;;;23.10;95.20;23.90;101983.00;;;;5040008;28;20208;-66
2022/07/27 12:59:01;;;;;;;0.10;0.10;;;23.40;93.50;24.10;102002.00;;;;5074872;28;20179;-67
2022/07/27 13:02:06;;;;;;;0.10;0.10;;;22.70;93.30;25.00;101988.00;;;;5074206;28;20698;-66
2022/07/27 13:05:26;;;;;;;0.10;0.10;;;23.00;93.50;24.40;101992.00;;;;5056474;28;20180;-67
2022/07/27 13:08:53;;;;;;;0.10;0.10;;;23.10;92.50;25.50;101974.00;;;;5056810;28;20169;-67
2022/07/27 13:11:41;;;;;;;1.25;0.30;;;23.50;92.80;24.40;101972.00;;;;5055563;28;20208;-66
2022/07/27 13:15:00;;;;;;;2.20;1.30;;;23.40;92.10;23.30;101941.00;;;;5056096;28;20543;-66
2022/07/27 13:18:19;;;;;;;0.20;0.20;;;22.70;93.30;23.80;101977.00;;;;5056291;28;20689;-64
2022/07/27 13:21:40;;;;;;;0.35;0.35;;;22.50;94.00;23.40;101976.00;;;;5054059;28;20173;-66
2022/07/27 13:24:59;;;;;;;0.10;0.10;;;22.40;93.40;25.00;101940.00;;;;5053634;28;20177;-67
2022/07/27 13:28:03;;;;;;;0.20;0.20;;;23.10;93.70;24.40;101964.00;;;;5048802;28;20523;-67
2022/07/27 13:31:09;;;;;;;0.43;0.30;;;23.30;94.10;24.60;101980.00;;;;5077617;28;20264;-67
2022/07/27 13:34:18;;;;;;;0.10;0.10;;;23.40;95.90;24.40;101976.00;;;;5074279;28;20223;-67
2022/07/27 13:37:28;;;;;;;0.10;0.10;;;23.10;97.10;23.70;101978.00;;;;5055969;28;20179;-67
2022/07/27 13:40:36;;;;;;;0.10;0.10;;;23.00;97.10;24.10;101988.00;;;;5055909;28;20267;-67
2022/07/27 13:43:54;;;;;;;0.20;0.20;;;22.50;98.50;23.20;101977.00;;;;5073623;28;20193;-67
2022/07/27 13:47:21;;;;;;;0.10;0.10;;;22.30;97.90;25.10;101946.00;;;;5055876;28;20189;-67
2022/07/27 13:50:29;;;;;;;0.20;0.20;;;22.80;97.80;24.90;101974.00;;;;5030588;28;20196;-67
2022/07/27 13:53:48;;;;;;;0.50;0.50;;;23.20;97.50;23.30;101973.00;;;;5038290;28;20604;-67
2022/07/27 13:56:56;;;;;;;0.10;0.10;;;22.90;97.80;24.40;101981.00;;;;5055459;28;20166;-67
2022/07/27 14:00:33;;;;;;;0.10;0.10;;;22.70;98.90;24.60;101982.00;;;;5055765;28;20185;-67
2022/07/27 14:03:54;;;;;;;0.40;0.40;;;22.90;98.90;24.30;101984.00;;;;5057751;28;20178;-67
2022/07/27 14:07:03;;;;;;;0.17;0.17;;;23.40;98.40;23.00;101983.00;;;;5055801;28;20177;-68
2022/07/27 14:10:40;;;;;;;0.82;0.47;;;22.50;98.90;23.10;101992.00;;;;5055363;28;20675;-67
2022/07/27 14:13:47;;;;;;;1.98;0.45;;;22.20;99.20;22.60;101993.00;;;;5073175;28;20224;-67
2022/07/27 14:20:35;;;;;;;0.10;0.10;;;22.10;99.90;24.10;102002.00;;;;5058796;28;20276;-68
2022/07/27 14:23:23;;;;;;;1.42;0.38;;;22.10;99.90;22.90;101984.00;;;;5028234;28;20185;-68
2022/07/27 14:26:21;;;;;;;0.10;0.10;;;22.00;99.20;24.10;101994.00;;;;5055259;28;20196;-68
2022/07/27 14:29:17;;;;;;;0.10;0.10;;;22.00;99.90;24.70;101989.00;;;;4955611;28;20722;-68
2022/07/27 14:32:13;;;;;;;0.43;0.20;;;22.50;98.70;24.40;101949.00;;;;4938128;28;20260;-68
2022/07/27 14:35:20;;;;;;;2.47;2.38;;;22.80;98.50;23.90;101974.00;;;;4970371;28;20200;-69
2022/07/27 14:38:35;;;;;;;0.13;0.13;;;22.90;96.90;25.10;101961.00;;;;4940275;28;20195;-67
2022/07/27 14:41:22;;;;;;;1.10;1.10;;;23.10;97.40;25.30;101959.00;;;;4971699;28;20331;-68
2022/07/27 14:44:38;;;;;;;2.80;0.35;;;23.60;97.30;25.10;101970.00;;;;4972109;28;20189;-70
2022/07/27 14:47:30;;;;;;;0.43;0.43;;;23.50;97.90;24.10;101965.00;;;;4970596;28;20196;-70